createdAt,value
2023-02-07T00:01:39.007Z,66.72
2023-02-07T00:04:07.357Z,67.06
2023-02-07T00:06:36.877Z,67.25
2023-02-07T00:09:07.272Z,67.10
2023-02-07T00:11:37.098Z,66.98
2023-02-07T00:14:05.264Z,66.87
2023-02-07T00:16:34.313Z,67.23
2023-02-07T00:19:02.374Z,67.22
2023-02-07T00:21:31.014Z,67.17
2023-02-07T00:23:59.303Z,67.41
2023-02-07T00:26:28.324Z,67.22
2023-02-07T00:28:57.169Z,67.20
2023-02-07T00:31:28.398Z,67.27
2023-02-07T00:34:00.696Z,67.26
2023-02-07T00:36:32.608Z,67.43
2023-02-07T00:39:03.825Z,67.75
2023-02-07T00:41:32.090Z,67.81
2023-02-07T00:44:01.675Z,67.93
2023-02-07T00:46:30.683Z,68.11
2023-02-07T00:48:59.253Z,67.99
2023-02-07T00:51:28.136Z,67.70
2023-02-07T00:53:57.442Z,67.72
2023-02-07T00:56:27.666Z,67.75
2023-02-07T00:58:56.140Z,67.96
2023-02-07T01:01:27.605Z,67.82
2023-02-07T01:03:57.812Z,67.79
2023-02-07T01:06:28.331Z,67.80
2023-02-07T01:09:02.120Z,67.67
2023-02-07T01:11:31.032Z,68.02
2023-02-07T01:14:01.774Z,68.43
2023-02-07T01:16:36.000Z,68.25
2023-02-07T01:19:12.077Z,68.15
2023-02-07T01:21:40.317Z,68.18
2023-02-07T01:24:09.520Z,68.10
2023-02-07T01:26:39.594Z,67.97
2023-02-07T01:29:10.802Z,68.27
2023-02-07T01:31:38.933Z,68.34
2023-02-07T01:34:07.228Z,68.41
2023-02-07T01:36:35.500Z,68.01
2023-02-07T01:39:05.158Z,67.97
2023-02-07T01:41:36.251Z,68.32
2023-02-07T01:44:29.090Z,67.99
2023-02-07T01:46:57.524Z,67.91
2023-02-07T01:49:30.551Z,67.76
2023-02-07T01:52:03.641Z,67.99
2023-02-07T01:54:33.820Z,67.91
2023-02-07T01:57:06.997Z,67.83
2023-02-07T01:59:39.249Z,67.84
2023-02-07T02:02:07.395Z,67.73
2023-02-07T02:04:35.677Z,67.94
2023-02-07T02:07:05.383Z,67.87
2023-02-07T02:09:33.873Z,67.81
2023-02-07T02:12:27.219Z,67.85
2023-02-07T02:14:58.370Z,68.34
2023-02-07T02:17:45.490Z,68.21
2023-02-07T02:20:22.882Z,67.96
2023-02-07T02:23:26.681Z,67.81
2023-02-07T02:26:17.897Z,67.82
2023-02-07T02:29:21.395Z,67.70
2023-02-07T02:32:08.100Z,68.24
2023-02-07T02:34:54.922Z,68.27
2023-02-07T02:37:42.042Z,68.25
2023-02-07T02:40:23.010Z,68.53
2023-02-07T02:43:04.498Z,68.46
2023-02-07T02:45:52.124Z,68.52
2023-02-07T02:48:20.479Z,68.07
2023-02-07T02:50:50.153Z,68.23
2023-02-07T02:53:18.407Z,68.36
2023-02-07T02:56:03.871Z,68.34
2023-02-07T02:59:05.221Z,68.43
2023-02-07T03:01:36.308Z,68.57
2023-02-07T03:04:14.124Z,68.07
2023-02-07T03:07:01.376Z,68.14
2023-02-07T03:10:02.942Z,68.31
2023-02-07T03:12:59.382Z,68.64
2023-02-07T03:15:31.124Z,68.83
2023-02-07T03:18:57.157Z,69.08
2023-02-07T03:21:34.623Z,69.19
2023-02-07T03:24:07.853Z,69.33
2023-02-07T03:26:38.150Z,69.10
2023-02-07T03:29:09.205Z,69.44
2023-02-07T03:31:42.060Z,69.52
2023-02-07T03:34:16.694Z,69.66
2023-02-07T03:37:04.927Z,69.56
2023-02-07T03:39:34.237Z,69.18
2023-02-07T03:42:12.759Z,69.14
2023-02-07T03:44:42.882Z,69.27
2023-02-07T03:47:10.957Z,69.30
2023-02-07T03:49:39.189Z,69.42
2023-02-07T03:52:07.292Z,69.57
2023-02-07T03:54:35.466Z,69.62
2023-02-07T03:57:03.633Z,69.15
2023-02-07T03:59:31.907Z,68.90
2023-02-07T04:02:02.489Z,69.07
2023-02-07T04:04:30.749Z,69.43
2023-02-07T04:06:59.295Z,69.71
2023-02-07T04:09:27.459Z,69.85
2023-02-07T04:11:55.549Z,69.70
2023-02-07T04:14:23.730Z,69.66
2023-02-07T04:16:51.794Z,69.83
2023-02-07T04:19:20.066Z,70.16
2023-02-07T04:21:48.354Z,70.04
2023-02-07T04:24:16.817Z,69.99
2023-02-07T04:26:44.986Z,69.93
2023-02-07T04:29:13.172Z,69.87
2023-02-07T04:31:42.725Z,70.08
2023-02-07T04:34:13.323Z,70.13
2023-02-07T04:36:41.587Z,69.74
2023-02-07T04:39:09.649Z,69.72
2023-02-07T04:41:37.654Z,69.55
2023-02-07T04:44:06.094Z,69.79
2023-02-07T04:46:34.470Z,69.78
2023-02-07T04:49:04.283Z,69.89
2023-02-07T04:51:33.276Z,69.88
2023-02-07T04:54:01.526Z,69.61
2023-02-07T04:56:29.918Z,69.37
2023-02-07T04:58:57.991Z,69.29
2023-02-07T05:01:26.197Z,69.08
2023-02-07T05:03:54.355Z,68.70
2023-02-07T05:06:22.426Z,68.61
2023-02-07T05:08:50.420Z,68.47
2023-02-07T05:11:19.652Z,68.23
2023-02-07T05:13:47.760Z,68.32
2023-02-07T05:16:16.215Z,68.24
2023-02-07T05:18:44.807Z,67.86
2023-02-07T05:21:13.098Z,67.98
2023-02-07T05:23:41.371Z,67.55
2023-02-07T05:26:09.763Z,67.51
2023-02-07T05:28:37.824Z,67.29
2023-02-07T05:31:06.374Z,67.15
2023-02-07T05:33:34.780Z,67.23
2023-02-07T05:36:03.270Z,67.32
2023-02-07T05:38:31.733Z,67.18
2023-02-07T05:41:00.136Z,66.93
2023-02-07T05:43:28.381Z,67.00
2023-02-07T05:45:56.443Z,66.91
2023-02-07T05:48:24.623Z,67.42
2023-02-07T05:50:52.697Z,67.21
2023-02-07T05:53:21.214Z,66.98
2023-02-07T05:55:52.168Z,66.89
2023-02-07T05:58:20.300Z,66.93
2023-02-07T06:00:49.078Z,67.11
2023-02-07T06:03:17.170Z,66.99
2023-02-07T06:05:45.187Z,67.21
2023-02-07T06:08:13.370Z,67.04
2023-02-07T06:10:41.345Z,67.15
2023-02-07T06:13:09.323Z,67.07
2023-02-07T06:15:38.011Z,67.02
2023-02-07T06:18:06.295Z,66.88
2023-02-07T06:20:34.358Z,66.66
2023-02-07T06:23:02.633Z,66.82
2023-02-07T06:25:30.919Z,66.87
2023-02-07T06:27:59.206Z,66.57
2023-02-07T06:30:27.517Z,66.03
2023-02-07T06:32:55.738Z,66.21
2023-02-07T06:35:23.863Z,66.58
2023-02-07T06:37:54.757Z,66.84
2023-02-07T06:40:23.732Z,66.98
2023-02-07T06:42:51.914Z,66.95
2023-02-07T06:45:20.189Z,66.87
2023-02-07T06:47:48.266Z,66.77
2023-02-07T06:50:16.384Z,67.21
2023-02-07T06:52:44.955Z,67.40
2023-02-07T06:55:13.189Z,67.58
2023-02-07T06:57:41.356Z,67.40
2023-02-07T07:00:12.855Z,67.40
2023-02-07T07:02:40.889Z,65.57
2023-02-07T07:05:09.577Z,63.71
2023-02-07T07:07:37.501Z,61.24
2023-02-07T07:10:06.484Z,59.97
2023-02-07T07:12:35.320Z,59.09
2023-02-07T07:15:04.205Z,56.70
2023-02-07T07:17:32.288Z,55.81
2023-02-07T07:20:00.440Z,55.43
2023-02-07T07:22:28.624Z,53.99
2023-02-07T07:24:56.584Z,52.72
2023-02-07T07:27:24.659Z,50.31
2023-02-07T07:29:52.735Z,49.47
2023-02-07T07:32:33.194Z,49.86
2023-02-07T07:35:03.945Z,49.19
2023-02-07T07:37:32.913Z,48.72
2023-02-07T07:40:01.194Z,44.33
2023-02-07T07:42:29.372Z,44.49
2023-02-07T07:45:17.711Z,45.34
2023-02-07T07:47:45.824Z,44.83
2023-02-07T07:50:14.558Z,44.14
2023-02-07T07:52:43.373Z,42.92
2023-02-07T07:55:11.360Z,42.47
2023-02-07T07:57:40.425Z,40.40
2023-02-07T08:00:09.298Z,38.61
2023-02-07T08:02:44.741Z,37.92
2023-02-07T08:05:13.899Z,38.72
2023-02-07T08:07:42.541Z,39.18
2023-02-07T08:10:11.116Z,38.96
2023-02-07T08:12:39.287Z,39.49
2023-02-07T08:15:09.768Z,39.46
2023-02-07T08:17:37.987Z,39.92
2023-02-07T08:20:06.559Z,40.48
2023-02-07T08:22:34.634Z,40.62
2023-02-07T08:25:02.844Z,40.18
2023-02-07T08:27:30.985Z,38.42
2023-02-07T08:29:58.958Z,37.44
2023-02-07T08:32:28.869Z,36.09
2023-02-07T08:34:56.933Z,36.27
2023-02-07T08:37:25.012Z,35.63
2023-02-07T08:39:53.198Z,34.64
2023-02-07T08:42:22.277Z,34.12
2023-02-07T08:44:50.907Z,33.65
2023-02-07T08:47:19.107Z,33.84
2023-02-07T08:49:47.138Z,33.18
2023-02-07T08:52:15.275Z,32.32
2023-02-07T08:54:43.263Z,30.62
2023-02-07T08:57:11.418Z,30.39
2023-02-07T08:59:39.387Z,30.02
2023-02-07T09:02:07.746Z,29.10
2023-02-07T09:04:36.659Z,28.47
2023-02-07T09:07:05.238Z,28.86
2023-02-07T09:09:34.025Z,28.72
2023-02-07T09:12:02.708Z,28.77
2023-02-07T09:14:30.887Z,28.17
2023-02-07T09:16:58.947Z,27.70
2023-02-07T09:19:27.345Z,27.48
2023-02-07T09:21:55.528Z,27.43
2023-02-07T09:24:24.000Z,27.62
2023-02-07T09:26:52.570Z,27.12
2023-02-07T09:29:20.943Z,27.05
2023-02-07T09:31:49.372Z,26.59
2023-02-07T09:34:17.622Z,26.57
2023-02-07T09:36:46.072Z,26.91
2023-02-07T09:39:14.765Z,26.38
2023-02-07T09:42:21.637Z,25.74
2023-02-07T09:45:13.069Z,24.91
2023-02-07T09:47:45.048Z,25.03
2023-02-07T09:50:19.041Z,25.35
2023-02-07T09:52:56.215Z,25.50
2023-02-07T09:55:32.681Z,25.25
2023-02-07T09:58:13.347Z,25.05
2023-02-07T10:00:46.112Z,24.66
2023-02-07T10:03:16.553Z,24.29
2023-02-07T10:05:52.208Z,23.90
2023-02-07T10:08:22.062Z,24.10
2023-02-07T10:11:27.823Z,24.03
2023-02-07T10:14:15.294Z,24.29
2023-02-07T10:16:55.146Z,24.65
2023-02-07T10:19:51.390Z,24.74
2023-02-07T10:22:37.265Z,25.22
2023-02-07T10:25:20.307Z,25.29
2023-02-07T10:28:04.448Z,25.29
2023-02-07T10:30:37.844Z,25.28
2023-02-07T10:33:31.934Z,25.40
2023-02-07T10:36:07.386Z,25.51
2023-02-07T10:38:42.452Z,24.90
2023-02-07T10:41:22.793Z,25.68
2023-02-07T10:43:52.046Z,26.58
2023-02-07T10:46:23.082Z,26.27
2023-02-07T10:48:51.309Z,26.88
2023-02-07T10:51:33.656Z,26.83
2023-02-07T10:54:08.817Z,28.00
2023-02-07T10:56:43.312Z,28.12
2023-02-07T10:59:40.663Z,28.46
2023-02-07T11:02:28.848Z,28.58
2023-02-07T11:05:18.266Z,28.94
2023-02-07T11:07:59.482Z,28.57
2023-02-07T11:10:37.117Z,28.97
2023-02-07T11:13:14.486Z,29.55
2023-02-07T11:16:17.213Z,29.27
2023-02-07T11:18:53.934Z,30.08
2023-02-07T11:21:34.050Z,29.84
2023-02-07T11:24:07.264Z,29.84
2023-02-07T11:26:42.077Z,30.01
2023-02-07T11:29:17.122Z,29.74
2023-02-07T11:31:48.525Z,29.10
2023-02-07T11:34:59.225Z,29.57
2023-02-07T11:37:28.728Z,29.66
2023-02-07T11:40:24.046Z,29.87
2023-02-07T11:43:12.865Z,30.76
2023-02-07T11:45:44.876Z,31.04
2023-02-07T11:48:21.415Z,31.23
2023-02-07T11:50:54.026Z,31.00
2023-02-07T11:53:35.579Z,31.61
2023-02-07T11:56:04.487Z,32.04
2023-02-07T11:58:34.946Z,31.52
2023-02-07T12:01:05.385Z,32.02
2023-02-07T12:03:49.279Z,32.02
2023-02-07T12:06:22.853Z,31.75
2023-02-07T12:08:52.615Z,31.28
2023-02-07T12:11:31.727Z,31.34
2023-02-07T12:14:23.964Z,31.93
2023-02-07T12:16:59.919Z,33.17
2023-02-07T12:19:52.972Z,33.66
2023-02-07T12:22:31.801Z,33.62
2023-02-07T12:25:07.553Z,34.01
2023-02-07T12:27:40.835Z,33.85
2023-02-07T12:30:22.638Z,34.23
2023-02-07T12:32:58.500Z,34.03
2023-02-07T12:35:28.913Z,33.47
2023-02-07T12:38:12.250Z,33.51
2023-02-07T12:40:55.382Z,33.75
2023-02-07T12:44:12.845Z,33.65
2023-02-07T12:47:08.215Z,34.11
2023-02-07T12:49:42.118Z,33.79
2023-02-07T12:52:16.325Z,33.79
2023-02-07T12:55:18.411Z,34.13
2023-02-07T12:58:15.754Z,34.67
2023-02-07T13:00:52.428Z,35.31
2023-02-07T13:03:38.823Z,35.68
2023-02-07T13:06:58.696Z,36.34
2023-02-07T13:09:45.385Z,37.04
2023-02-07T13:12:13.480Z,37.22
2023-02-07T13:15:15.986Z,37.59
2023-02-07T13:17:59.076Z,36.81
2023-02-07T13:20:57.351Z,37.06
2023-02-07T13:23:28.543Z,37.09
2023-02-07T13:26:09.479Z,37.46
2023-02-07T13:28:49.209Z,38.00
2023-02-07T13:31:24.745Z,38.06
2023-02-07T13:33:53.748Z,37.51
2023-02-07T13:36:37.696Z,38.37
2023-02-07T13:39:28.769Z,39.13
2023-02-07T13:42:28.833Z,40.00
2023-02-07T13:45:27.594Z,39.87
2023-02-07T13:48:05.810Z,40.36
2023-02-07T13:50:50.485Z,40.83
2023-02-07T13:53:24.404Z,41.12
2023-02-07T13:55:52.577Z,41.20
2023-02-07T13:58:54.458Z,41.52
2023-02-07T14:01:29.578Z,42.08
2023-02-07T14:04:15.666Z,43.01
2023-02-07T14:07:12.074Z,44.32
2023-02-07T14:09:45.998Z,44.00
2023-02-07T14:12:23.699Z,44.38
2023-02-07T14:15:02.156Z,45.25
2023-02-07T14:17:30.809Z,45.50
2023-02-07T14:20:00.514Z,46.55
2023-02-07T14:22:32.446Z,46.44
2023-02-07T14:25:03.733Z,45.85
2023-02-07T14:27:54.942Z,46.41
2023-02-07T14:30:31.064Z,46.98
2023-02-07T14:33:17.491Z,46.88
2023-02-07T14:35:46.072Z,47.35
2023-02-07T14:38:31.926Z,48.22
2023-02-07T14:41:10.960Z,48.62
2023-02-07T14:44:08.129Z,49.12
2023-02-07T14:46:51.376Z,49.97
2023-02-07T14:49:25.062Z,50.40
2023-02-07T14:51:58.790Z,50.43
2023-02-07T14:55:04.934Z,50.49
2023-02-07T14:57:51.531Z,50.54
2023-02-07T15:00:39.464Z,50.37
2023-02-07T15:03:14.716Z,50.48
2023-02-07T15:05:51.486Z,50.85
2023-02-07T15:08:22.871Z,50.60
2023-02-07T15:11:00.785Z,50.50
2023-02-07T15:13:36.724Z,50.82
2023-02-07T15:16:12.917Z,51.03
2023-02-07T15:18:55.346Z,50.81
2023-02-07T15:21:34.183Z,51.12
2023-02-07T15:24:08.908Z,51.65
2023-02-07T15:26:37.381Z,51.65
2023-02-07T15:29:07.610Z,51.85
2023-02-07T15:31:41.169Z,51.49
2023-02-07T15:34:15.423Z,51.29
2023-02-07T15:36:46.055Z,51.40
2023-02-07T15:39:18.683Z,51.26
2023-02-07T15:41:49.532Z,51.53
2023-02-07T15:44:30.648Z,52.05
2023-02-07T15:47:07.419Z,52.65
2023-02-07T15:49:37.166Z,52.51
2023-02-07T15:52:12.496Z,52.75
2023-02-07T15:54:45.935Z,53.32
2023-02-07T15:57:25.620Z,53.08
2023-02-07T15:59:58.282Z,54.05
2023-02-07T16:02:31.766Z,54.33
2023-02-07T16:05:12.050Z,54.75
2023-02-07T16:07:40.532Z,54.85
2023-02-07T16:10:39.110Z,54.99
2023-02-07T16:13:07.382Z,55.08
2023-02-07T16:15:39.354Z,55.29
2023-02-07T16:18:40.721Z,54.88
2023-02-07T16:21:20.742Z,55.19
2023-02-07T16:23:51.515Z,56.74
2023-02-07T16:26:25.673Z,58.14
2023-02-07T16:28:54.066Z,56.82
2023-02-07T16:31:22.574Z,56.25
2023-02-07T16:33:50.748Z,56.68
2023-02-07T16:36:19.246Z,56.98
2023-02-07T16:38:47.383Z,57.04
2023-02-07T16:41:24.868Z,56.62
2023-02-07T16:43:53.060Z,56.78
2023-02-07T16:46:21.311Z,57.08
2023-02-07T16:48:49.290Z,57.54
2023-02-07T16:51:18.169Z,57.59
2023-02-07T16:53:46.246Z,57.51
2023-02-07T16:56:18.922Z,57.70
2023-02-07T16:58:47.009Z,57.93
2023-02-07T17:01:19.131Z,57.96
2023-02-07T17:03:47.372Z,58.00
2023-02-07T17:06:17.002Z,58.05
2023-02-07T17:08:46.176Z,57.71
2023-02-07T17:11:17.497Z,57.54
2023-02-07T17:13:45.556Z,57.78
2023-02-07T17:16:14.384Z,57.79
2023-02-07T17:18:42.564Z,58.00
2023-02-07T17:21:11.816Z,58.08
2023-02-07T17:23:40.602Z,57.73
2023-02-07T17:26:26.502Z,57.79
2023-02-07T17:28:55.590Z,57.80
2023-02-07T17:31:24.620Z,57.55
2023-02-07T17:33:52.965Z,57.51
2023-02-07T17:36:21.135Z,57.61
2023-02-07T17:38:49.258Z,57.84
2023-02-07T17:41:20.162Z,58.02
2023-02-07T17:43:48.406Z,58.17
2023-02-07T17:46:19.008Z,58.28
2023-02-07T17:48:49.634Z,58.28
2023-02-07T17:51:20.198Z,58.43
2023-02-07T17:53:48.774Z,58.59
2023-02-07T17:56:23.201Z,58.40
2023-02-07T17:58:52.590Z,58.37
2023-02-07T18:01:21.424Z,58.81
2023-02-07T18:03:52.420Z,58.82
2023-02-07T18:06:23.229Z,59.01
2023-02-07T18:08:51.949Z,59.05
2023-02-07T18:11:20.012Z,59.19
2023-02-07T18:13:48.387Z,58.82
2023-02-07T18:16:22.888Z,59.07
2023-02-07T18:18:52.640Z,59.29
2023-02-07T18:21:21.131Z,59.21
2023-02-07T18:23:49.282Z,58.98
2023-02-07T18:26:19.311Z,58.91
2023-02-07T18:28:47.347Z,59.04
2023-02-07T18:31:20.145Z,59.27
2023-02-07T18:33:49.481Z,59.29
2023-02-07T18:36:21.818Z,59.24
2023-02-07T18:38:49.910Z,59.19
2023-02-07T18:41:23.542Z,59.44
2023-02-07T18:43:51.868Z,59.33
2023-02-07T18:46:20.909Z,58.98
2023-02-07T18:48:54.584Z,58.79
2023-02-07T18:51:23.684Z,58.56
2023-02-07T18:53:54.977Z,58.70
2023-02-07T18:56:25.532Z,58.54
2023-02-07T18:58:56.822Z,58.30
2023-02-07T19:01:27.925Z,58.38
2023-02-07T19:03:58.674Z,58.79
2023-02-07T19:06:29.113Z,59.10
2023-02-07T19:08:57.579Z,59.12
2023-02-07T19:11:26.787Z,59.30
2023-02-07T19:13:55.238Z,59.13
2023-02-07T19:16:24.945Z,58.99
2023-02-07T19:18:53.651Z,59.14
2023-02-07T19:21:27.307Z,59.07
2023-02-07T19:23:57.865Z,59.02
2023-02-07T19:26:26.792Z,59.24
2023-02-07T19:28:54.924Z,59.19
2023-02-07T19:31:24.850Z,59.25
2023-02-07T19:33:54.347Z,59.18
2023-02-07T19:36:23.629Z,59.51
2023-02-07T19:38:54.320Z,59.87
2023-02-07T19:41:24.597Z,59.90
2023-02-07T19:43:53.045Z,60.15
2023-02-07T19:46:22.096Z,60.27
2023-02-07T19:48:50.975Z,60.28
2023-02-07T19:51:22.271Z,60.50
2023-02-07T19:53:52.153Z,60.21
2023-02-07T19:56:24.326Z,60.54
2023-02-07T19:58:54.815Z,60.64
2023-02-07T20:01:27.782Z,60.93
2023-02-07T20:03:57.135Z,60.52
2023-02-07T20:06:29.385Z,60.56
2023-02-07T20:08:58.873Z,60.57
2023-02-07T20:11:28.061Z,60.51
2023-02-07T20:14:03.124Z,60.47
2023-02-07T20:16:38.930Z,60.60
2023-02-07T20:19:08.262Z,60.43
2023-02-07T20:21:37.249Z,60.30
2023-02-07T20:24:06.098Z,60.40
2023-02-07T20:26:44.333Z,60.44
2023-02-07T20:29:15.287Z,60.38
2023-02-07T20:31:44.270Z,60.37
2023-02-07T20:34:12.649Z,60.66
2023-02-07T20:36:42.264Z,60.40
2023-02-07T20:39:15.795Z,60.40
2023-02-07T20:41:46.950Z,60.42
2023-02-07T20:44:19.061Z,60.18
2023-02-07T20:46:49.375Z,60.24
2023-02-07T20:49:22.182Z,60.21
2023-02-07T20:51:52.025Z,60.29
2023-02-07T20:54:23.193Z,60.64
2023-02-07T20:56:52.756Z,60.78
2023-02-07T20:59:32.952Z,60.85
2023-02-07T21:02:01.776Z,60.55
2023-02-07T21:04:30.363Z,60.97
2023-02-07T21:06:58.539Z,60.87
2023-02-07T21:09:26.808Z,60.80
2023-02-07T21:11:55.304Z,61.09
2023-02-07T21:14:29.746Z,61.00
2023-02-07T21:17:01.653Z,61.28
2023-02-07T21:19:30.151Z,61.36
2023-02-07T21:21:58.626Z,61.26
2023-02-07T21:24:27.424Z,61.80
2023-02-07T21:26:56.401Z,61.69
2023-02-07T21:29:25.302Z,61.50
2023-02-07T21:31:53.832Z,61.20
2023-02-07T21:34:22.466Z,61.36
2023-02-07T21:36:50.745Z,61.26
2023-02-07T21:39:19.649Z,61.01
2023-02-07T21:41:48.230Z,60.98
2023-02-07T21:44:17.620Z,60.91
2023-02-07T21:46:46.401Z,61.02
2023-02-07T21:49:16.827Z,61.07
2023-02-07T21:51:47.125Z,61.54
2023-02-07T21:54:16.656Z,61.36
2023-02-07T21:56:45.281Z,61.24
2023-02-07T21:59:15.867Z,61.20
2023-02-07T22:01:45.547Z,61.10
2023-02-07T22:04:14.887Z,61.02
2023-02-07T22:06:44.740Z,61.20
2023-02-07T22:09:14.471Z,61.06
2023-02-07T22:11:43.634Z,61.53
2023-02-07T22:14:13.416Z,61.46
2023-02-07T22:16:42.149Z,61.40
2023-02-07T22:19:13.573Z,61.51
2023-02-07T22:21:41.844Z,61.41
2023-02-07T22:24:13.103Z,62.31
2023-02-07T22:26:41.761Z,63.53
2023-02-07T22:29:10.591Z,62.79
2023-02-07T22:31:40.522Z,63.42
2023-02-07T22:34:13.638Z,62.79
2023-02-07T22:36:44.225Z,62.63
2023-02-07T22:39:14.355Z,62.68
2023-02-07T22:41:42.566Z,62.85
2023-02-07T22:44:11.127Z,62.95
2023-02-07T22:46:39.829Z,62.85
2023-02-07T22:49:07.986Z,63.49
2023-02-07T22:51:37.522Z,63.34
2023-02-07T22:54:10.150Z,63.15
2023-02-07T22:56:38.955Z,62.98
2023-02-07T22:59:06.994Z,63.27
2023-02-07T23:01:39.227Z,62.96
2023-02-07T23:04:15.650Z,62.90
2023-02-07T23:06:45.684Z,62.95
2023-02-07T23:09:14.163Z,63.79
2023-02-07T23:11:42.360Z,63.74
2023-02-07T23:14:10.868Z,63.25
2023-02-07T23:16:39.819Z,63.59
2023-02-07T23:19:14.594Z,63.94
2023-02-07T23:21:43.829Z,63.71
2023-02-07T23:24:12.413Z,63.52
2023-02-07T23:26:40.496Z,63.47
2023-02-07T23:29:08.868Z,63.10
2023-02-07T23:31:37.804Z,63.29
2023-02-07T23:34:05.923Z,63.90
2023-02-07T23:36:34.017Z,63.49
2023-02-07T23:39:02.761Z,63.66
2023-02-07T23:41:31.669Z,63.79
2023-02-07T23:44:00.602Z,63.93
2023-02-07T23:46:30.202Z,63.82
2023-02-07T23:48:59.138Z,64.08
2023-02-07T23:51:27.857Z,64.55
2023-02-07T23:53:55.771Z,64.27
2023-02-07T23:56:24.725Z,64.51
2023-02-07T23:58:53.604Z,64.91
